createdAt,value
2022-08-17T00:00:33.219Z,74.27
2022-08-17T00:03:03.089Z,72.83
2022-08-17T00:05:34.500Z,54.43
2022-08-17T00:08:02.181Z,57.40
2022-08-17T00:10:29.946Z,63.63
2022-08-17T00:13:00.410Z,71.97
2022-08-17T00:15:28.128Z,67.50
2022-08-17T00:17:55.721Z,72.60
2022-08-17T00:20:23.362Z,56.30
2022-08-17T00:23:09.057Z,56.83
2022-08-17T00:25:36.756Z,58.70
2022-08-17T00:28:04.894Z,60.27
2022-08-17T00:30:50.816Z,55.73
2022-08-17T00:33:23.762Z,67.37
2022-08-17T00:35:51.785Z,65.43
2022-08-17T00:38:21.308Z,65.33
2022-08-17T00:40:51.981Z,52.33
2022-08-17T00:43:29.642Z,62.13
2022-08-17T00:45:58.246Z,57.50
2022-08-17T00:48:29.067Z,63.00
2022-08-17T00:51:02.360Z,58.23
2022-08-17T00:53:33.931Z,51.40
2022-08-17T00:56:04.480Z,49.10
2022-08-17T00:58:36.209Z,54.97
2022-08-17T01:01:05.314Z,69.23
2022-08-17T01:03:34.221Z,65.30
2022-08-17T01:06:04.520Z,65.30
2022-08-17T01:08:34.278Z,79.90
2022-08-17T01:11:03.074Z,70.57
2022-08-17T01:13:38.148Z,68.77
2022-08-17T01:16:16.959Z,68.77
2022-08-17T01:18:46.715Z,70.63
2022-08-17T01:21:21.813Z,93.47
2022-08-17T01:23:50.857Z,72.97
2022-08-17T01:26:19.037Z,68.40
2022-08-17T01:28:54.309Z,63.10
2022-08-17T01:31:24.788Z,55.53
2022-08-17T01:33:53.248Z,62.53
2022-08-17T01:36:20.902Z,49.27
2022-08-17T01:38:49.869Z,44.67
2022-08-17T01:41:17.964Z,46.93
2022-08-17T01:43:48.828Z,57.63
2022-08-17T01:46:21.033Z,45.70
2022-08-17T01:48:51.078Z,43.50
2022-08-17T01:51:19.120Z,43.17
2022-08-17T01:53:51.353Z,55.77
2022-08-17T01:56:23.413Z,48.97
2022-08-17T01:58:51.778Z,54.80
2022-08-17T02:01:22.200Z,68.90
2022-08-17T02:03:54.532Z,92.17
2022-08-17T02:06:30.171Z,79.00
2022-08-17T02:09:02.977Z,73.07
2022-08-17T02:11:33.147Z,59.77
2022-08-17T02:14:03.443Z,47.03
2022-08-17T02:16:36.862Z,66.50
2022-08-17T02:19:06.482Z,48.57
2022-08-17T02:21:34.170Z,45.90
2022-08-17T02:24:03.956Z,48.67
2022-08-17T02:26:31.623Z,49.87
2022-08-17T02:28:59.250Z,136.50
2022-08-17T02:31:26.821Z,150.23
2022-08-17T02:34:00.403Z,61.87
2022-08-17T02:36:33.097Z,114.90
2022-08-17T02:39:01.436Z,97.10
2022-08-17T02:41:30.457Z,81.83
2022-08-17T02:43:58.548Z,87.23
2022-08-17T02:46:26.521Z,75.10
2022-08-17T02:48:54.122Z,68.60
2022-08-17T02:51:21.707Z,114.70
2022-08-17T02:53:49.293Z,126.13
2022-08-17T02:56:17.120Z,62.00
2022-08-17T02:58:46.280Z,92.50
2022-08-17T03:01:14.432Z,75.83
2022-08-17T03:03:42.096Z,88.00
2022-08-17T03:06:10.322Z,75.33
2022-08-17T03:08:38.445Z,93.47
2022-08-17T03:11:06.027Z,88.20
2022-08-17T03:13:33.950Z,159.90
2022-08-17T03:16:03.067Z,66.97
2022-08-17T03:18:30.645Z,63.27
2022-08-17T03:21:00.533Z,75.80
2022-08-17T03:23:30.316Z,81.73
2022-08-17T03:25:58.918Z,53.87
2022-08-17T03:28:28.154Z,74.30
2022-08-17T03:30:55.905Z,77.30
2022-08-17T03:33:24.862Z,58.20
2022-08-17T03:35:52.518Z,93.23
2022-08-17T03:38:20.190Z,57.50
2022-08-17T03:40:56.389Z,44.00
2022-08-17T03:43:28.603Z,42.63
2022-08-17T03:46:28.340Z,46.50
2022-08-17T03:49:21.185Z,42.90
2022-08-17T03:52:06.269Z,44.00
2022-08-17T03:54:51.561Z,39.63
2022-08-17T03:57:19.493Z,46.33
2022-08-17T03:59:48.394Z,50.00
2022-08-17T04:02:20.994Z,53.60
2022-08-17T04:04:51.293Z,47.50
2022-08-17T04:07:19.617Z,82.47
2022-08-17T04:09:47.284Z,52.50
2022-08-17T04:12:16.415Z,58.03
2022-08-17T04:14:53.270Z,49.70
2022-08-17T04:17:22.621Z,46.40
2022-08-17T04:19:51.569Z,57.97
2022-08-17T04:22:32.656Z,53.10
2022-08-17T04:25:02.484Z,49.60
2022-08-17T04:27:30.048Z,52.77
2022-08-17T04:29:58.425Z,83.03
2022-08-17T04:33:03.813Z,93.67
2022-08-17T04:35:19.189Z,89.40
2022-08-17T04:37:47.309Z,176.77
2022-08-17T04:40:32.714Z,107.37
2022-08-17T04:43:05.685Z,142.00
2022-08-17T04:45:33.283Z,122.77
2022-08-17T04:48:01.391Z,241.07
2022-08-17T04:50:30.380Z,210.33
2022-08-17T04:52:58.333Z,181.97
2022-08-17T04:55:26.196Z,154.70
2022-08-17T04:57:53.997Z,128.03
2022-08-17T05:00:22.370Z,272.30
2022-08-17T05:02:52.497Z,165.30
2022-08-17T05:05:21.791Z,228.67
2022-08-17T05:07:52.574Z,108.43
2022-08-17T05:10:20.789Z,72.37
2022-08-17T05:12:48.904Z,58.87
2022-08-17T05:15:16.693Z,51.77
2022-08-17T05:17:44.863Z,62.80
2022-08-17T05:20:12.675Z,63.87
2022-08-17T05:22:51.219Z,90.23
2022-08-17T05:25:25.590Z,71.17
2022-08-17T05:27:54.162Z,56.47
2022-08-17T05:30:22.973Z,57.77
2022-08-17T05:32:55.324Z,50.50
2022-08-17T05:35:24.128Z,39.87
2022-08-17T05:37:53.464Z,52.83
2022-08-17T05:40:26.037Z,80.43
2022-08-17T05:43:05.289Z,114.10
2022-08-17T05:45:46.089Z,70.90
2022-08-17T05:48:21.469Z,39.60
2022-08-17T05:51:16.310Z,88.23
2022-08-17T05:53:53.842Z,201.97
2022-08-17T05:56:33.646Z,49.77
2022-08-17T05:59:10.205Z,88.77
2022-08-17T06:01:47.524Z,113.60
2022-08-17T06:04:19.947Z,111.60
2022-08-17T06:06:56.762Z,86.20
2022-08-17T06:09:39.973Z,56.90
2022-08-17T06:12:24.965Z,97.60
2022-08-17T06:15:04.726Z,91.40
2022-08-17T06:17:33.070Z,50.13
2022-08-17T06:20:04.361Z,31.13
2022-08-17T06:22:35.917Z,43.93
2022-08-17T06:25:13.849Z,37.00
2022-08-17T06:27:44.714Z,35.80
2022-08-17T06:30:15.110Z,23.40
2022-08-17T06:32:45.550Z,25.90
2022-08-17T06:35:16.393Z,26.33
2022-08-17T06:38:04.950Z,24.70
2022-08-17T06:41:01.473Z,26.27
2022-08-17T06:43:47.940Z,26.53
2022-08-17T06:46:22.581Z,26.53
2022-08-17T06:49:00.849Z,29.60
2022-08-17T06:51:33.866Z,29.93
2022-08-17T06:54:08.740Z,38.30
2022-08-17T06:56:52.931Z,32.00
2022-08-17T06:59:26.329Z,40.13
2022-08-17T07:02:06.241Z,29.00
2022-08-17T07:04:36.633Z,31.93
2022-08-17T07:07:22.238Z,31.20
2022-08-17T07:09:52.793Z,34.90
2022-08-17T07:12:26.165Z,33.73
2022-08-17T07:15:00.385Z,34.50
2022-08-17T07:17:46.589Z,31.77
2022-08-17T07:20:17.584Z,34.40
2022-08-17T07:22:59.787Z,34.20
2022-08-17T07:25:30.573Z,40.07
2022-08-17T07:28:02.359Z,37.27
2022-08-17T07:30:45.589Z,38.07
2022-08-17T07:33:20.108Z,40.90
2022-08-17T07:35:49.799Z,44.70
2022-08-17T07:38:25.349Z,38.50
2022-08-17T07:41:03.330Z,44.90
2022-08-17T07:43:34.970Z,47.03
2022-08-17T07:46:35.299Z,48.80
2022-08-17T07:49:24.414Z,42.23
2022-08-17T07:52:47.852Z,44.30
2022-08-17T07:54:49.468Z,41.90
2022-08-17T07:57:34.073Z,40.43
2022-08-17T08:00:27.975Z,40.17
2022-08-17T08:03:05.301Z,39.27
2022-08-17T08:05:50.286Z,39.30
2022-08-17T08:08:27.945Z,38.10
2022-08-17T08:11:05.446Z,36.80
2022-08-17T08:13:34.429Z,38.47
2022-08-17T08:16:30.262Z,38.50
2022-08-17T08:19:00.260Z,35.30
2022-08-17T08:21:37.637Z,38.27
2022-08-17T08:24:20.790Z,37.40
2022-08-17T08:26:57.619Z,35.30
2022-08-17T08:29:32.258Z,39.43
2022-08-17T08:32:07.972Z,38.13
2022-08-17T08:35:02.246Z,39.87
2022-08-17T08:37:42.918Z,36.63
2022-08-17T08:40:27.251Z,39.90
2022-08-17T08:43:08.170Z,35.53
2022-08-17T08:45:43.348Z,35.87
2022-08-17T08:48:52.977Z,37.77
2022-08-17T08:51:27.631Z,34.97
2022-08-17T08:54:03.302Z,32.67
2022-08-17T08:56:38.229Z,34.87
2022-08-17T08:59:18.942Z,35.30
2022-08-17T09:01:56.913Z,33.20
2022-08-17T09:05:10.393Z,34.93
2022-08-17T09:07:40.049Z,35.07
2022-08-17T09:10:15.702Z,32.23
2022-08-17T09:12:53.279Z,28.20
2022-08-17T09:15:25.604Z,26.63
2022-08-17T09:18:58.917Z,29.10
2022-08-17T09:20:56.325Z,26.33
2022-08-17T09:23:33.661Z,28.47
2022-08-17T09:26:07.723Z,24.20
2022-08-17T09:28:37.828Z,25.30
2022-08-17T09:31:10.435Z,25.83
2022-08-17T09:33:44.198Z,27.30
2022-08-17T09:36:19.634Z,27.53
2022-08-17T09:38:57.469Z,25.73
2022-08-17T09:41:32.331Z,27.83
2022-08-17T09:44:10.773Z,27.67
2022-08-17T09:46:56.857Z,28.23
2022-08-17T09:49:31.362Z,28.10
2022-08-17T09:52:08.914Z,26.83
2022-08-17T09:54:40.779Z,29.03
2022-08-17T09:57:31.829Z,25.37
2022-08-17T10:00:16.777Z,25.90
2022-08-17T10:03:04.730Z,26.97
2022-08-17T10:05:38.469Z,29.50
2022-08-17T10:08:17.970Z,25.60
2022-08-17T10:11:00.083Z,25.10
2022-08-17T10:13:36.333Z,23.93
2022-08-17T10:16:12.827Z,23.23
2022-08-17T10:18:52.754Z,25.83
2022-08-17T10:21:38.285Z,23.80
2022-08-17T10:24:29.818Z,24.30
2022-08-17T10:27:01.108Z,24.90
2022-08-17T10:29:44.162Z,22.93
2022-08-17T10:32:26.321Z,24.97
2022-08-17T10:35:19.590Z,26.53
2022-08-17T10:38:00.221Z,26.73
2022-08-17T10:40:38.002Z,24.47
2022-08-17T10:43:20.713Z,22.50
2022-08-17T10:46:10.692Z,24.33
2022-08-17T10:48:42.470Z,22.20
2022-08-17T10:51:12.710Z,23.50
2022-08-17T10:53:58.816Z,25.07
2022-08-17T10:56:45.187Z,22.50
2022-08-17T10:59:55.205Z,21.00
2022-08-17T11:02:27.916Z,22.27
2022-08-17T11:05:10.100Z,22.63
2022-08-17T11:07:52.254Z,23.07
2022-08-17T11:10:49.917Z,20.53
2022-08-17T11:13:31.933Z,20.60
2022-08-17T11:16:18.693Z,19.60
2022-08-17T11:19:09.811Z,18.97
2022-08-17T11:22:06.209Z,20.43
2022-08-17T11:24:36.472Z,19.20
2022-08-17T11:27:24.366Z,20.60
2022-08-17T11:30:00.947Z,21.77
2022-08-17T11:32:47.661Z,23.77
2022-08-17T11:35:33.128Z,19.10
2022-08-17T11:38:16.407Z,22.63
2022-08-17T11:41:04.069Z,20.87
2022-08-17T11:43:56.232Z,25.63
2022-08-17T11:46:51.660Z,22.80
2022-08-17T11:49:47.712Z,23.70
2022-08-17T11:52:39.259Z,24.60
2022-08-17T11:55:33.907Z,20.47
2022-08-17T11:58:01.640Z,19.83
2022-08-17T12:00:51.816Z,17.03
2022-08-17T12:03:23.454Z,15.87
2022-08-17T12:05:53.543Z,16.10
2022-08-17T12:08:23.333Z,15.73
2022-08-17T12:11:01.087Z,13.77
2022-08-17T12:13:39.381Z,15.53
2022-08-17T12:16:09.856Z,14.90
2022-08-17T12:18:41.927Z,13.93
2022-08-17T12:21:37.281Z,15.00
2022-08-17T12:24:15.330Z,13.27
2022-08-17T12:26:45.138Z,16.70
2022-08-17T12:29:18.291Z,12.97
2022-08-17T12:32:04.761Z,14.33
2022-08-17T12:34:37.429Z,13.20
2022-08-17T12:37:07.781Z,13.00
2022-08-17T12:39:40.365Z,12.60
2022-08-17T12:42:23.434Z,12.93
2022-08-17T12:44:51.073Z,13.80
2022-08-17T12:47:22.608Z,12.00
2022-08-17T12:49:52.425Z,12.80
2022-08-17T12:52:24.946Z,12.27
2022-08-17T12:54:58.205Z,11.47
2022-08-17T12:57:29.858Z,10.80
2022-08-17T13:00:00.784Z,11.67
2022-08-17T13:02:40.045Z,10.90
2022-08-17T13:05:17.237Z,11.40
2022-08-17T13:07:46.563Z,10.60
2022-08-17T13:10:21.357Z,10.70
2022-08-17T13:12:50.903Z,9.90
2022-08-17T13:15:26.102Z,13.20
2022-08-17T13:18:01.786Z,10.53
2022-08-17T13:20:30.042Z,11.13
2022-08-17T13:23:00.965Z,11.40
2022-08-17T13:25:31.993Z,10.07
2022-08-17T13:28:00.104Z,10.10
2022-08-17T13:30:33.106Z,9.33
2022-08-17T13:33:04.973Z,10.10
2022-08-17T13:35:49.318Z,9.77
2022-08-17T13:38:36.456Z,10.40
2022-08-17T13:41:07.397Z,9.53
2022-08-17T13:43:45.496Z,10.47
2022-08-17T13:46:20.254Z,10.53
2022-08-17T13:48:58.220Z,11.13
2022-08-17T13:51:35.311Z,10.33
2022-08-17T13:54:19.891Z,9.90
2022-08-17T13:56:55.592Z,10.47
2022-08-17T13:59:53.361Z,9.87
2022-08-17T14:02:21.481Z,10.43
2022-08-17T14:04:50.177Z,8.67
2022-08-17T14:07:37.740Z,9.63
2022-08-17T14:10:11.901Z,8.80
2022-08-17T14:12:44.555Z,9.20
2022-08-17T14:15:14.034Z,8.73
2022-08-17T14:17:41.762Z,9.33
2022-08-17T14:20:12.825Z,9.23
2022-08-17T14:22:44.200Z,9.77
2022-08-17T14:25:13.547Z,9.30
2022-08-17T14:27:51.829Z,9.13
2022-08-17T14:30:21.885Z,9.37
2022-08-17T14:32:51.622Z,8.90
2022-08-17T14:35:21.899Z,8.20
2022-08-17T14:37:49.923Z,8.70
2022-08-17T14:40:20.600Z,8.90
2022-08-17T14:42:49.945Z,8.03
2022-08-17T14:45:29.862Z,7.80
2022-08-17T14:48:00.157Z,9.40
2022-08-17T14:50:27.739Z,9.10
2022-08-17T14:52:56.238Z,9.13
2022-08-17T14:55:26.038Z,9.17
2022-08-17T14:57:54.924Z,8.27
2022-08-17T15:00:22.490Z,8.10
2022-08-17T15:02:53.848Z,8.63
2022-08-17T15:05:24.485Z,8.87
2022-08-17T15:07:53.284Z,9.70
2022-08-17T15:10:21.914Z,8.60
2022-08-17T15:12:49.725Z,9.20
2022-08-17T15:15:18.774Z,10.03
2022-08-17T15:17:46.406Z,9.20
2022-08-17T15:20:16.713Z,7.90
2022-08-17T15:22:45.746Z,7.90
2022-08-17T15:25:14.677Z,7.27
2022-08-17T15:27:43.058Z,7.77
2022-08-17T15:30:11.844Z,8.30
2022-08-17T15:32:50.995Z,8.23
2022-08-17T15:35:27.062Z,7.53
2022-08-17T15:37:56.365Z,7.13
2022-08-17T15:40:24.979Z,7.93
2022-08-17T15:42:52.689Z,7.90
2022-08-17T15:45:26.876Z,8.20
2022-08-17T15:47:55.891Z,7.20
2022-08-17T15:50:23.454Z,7.37
2022-08-17T15:52:56.633Z,6.10
2022-08-17T15:55:24.768Z,7.93
2022-08-17T15:57:53.076Z,6.40
2022-08-17T16:00:23.565Z,5.80
2022-08-17T16:03:15.987Z,6.70
2022-08-17T16:05:41.345Z,6.27
2022-08-17T16:08:10.863Z,6.27
2022-08-17T16:10:38.501Z,6.30
2022-08-17T16:13:06.155Z,10.90
2022-08-17T16:15:48.680Z,7.43
2022-08-17T16:18:25.729Z,5.63
2022-08-17T16:20:55.020Z,5.60
2022-08-17T16:23:22.796Z,5.30
2022-08-17T16:25:53.738Z,6.10
2022-08-17T16:28:36.008Z,6.53
2022-08-17T16:31:05.842Z,7.10
2022-08-17T16:33:37.517Z,6.77
2022-08-17T16:36:07.969Z,6.73
2022-08-17T16:38:36.138Z,8.50
2022-08-17T16:41:04.156Z,6.83
2022-08-17T16:43:31.772Z,7.87
2022-08-17T16:46:00.710Z,7.50
2022-08-17T16:48:28.684Z,7.93
2022-08-17T16:51:03.150Z,7.23
2022-08-17T16:53:33.500Z,7.47
2022-08-17T16:56:01.075Z,8.27
2022-08-17T16:58:29.041Z,7.10
2022-08-17T17:00:59.608Z,7.30
2022-08-17T17:03:30.127Z,7.23
2022-08-17T17:06:07.222Z,7.53
2022-08-17T17:08:44.062Z,6.60
2022-08-17T17:11:15.347Z,7.93
2022-08-17T17:13:50.145Z,6.30
2022-08-17T17:16:23.945Z,7.50
2022-08-17T17:19:08.609Z,6.27
2022-08-17T17:21:44.683Z,7.17
2022-08-17T17:24:17.961Z,7.87
2022-08-17T17:27:07.008Z,7.67
2022-08-17T17:29:47.955Z,6.73
2022-08-17T17:32:21.786Z,6.40
2022-08-17T17:34:54.616Z,9.53
2022-08-17T17:37:28.279Z,9.00
2022-08-17T17:40:02.945Z,6.97
2022-08-17T17:42:32.963Z,8.50
2022-08-17T17:45:07.850Z,8.70
2022-08-17T17:47:35.957Z,8.63
2022-08-17T17:50:06.325Z,8.90
2022-08-17T17:52:42.237Z,7.57
2022-08-17T17:55:32.764Z,8.77
2022-08-17T17:58:10.478Z,9.37
2022-08-17T18:00:44.206Z,9.50
2022-08-17T18:03:26.837Z,8.73
2022-08-17T18:06:14.969Z,10.60
2022-08-17T18:09:18.119Z,9.30
2022-08-17T18:12:10.788Z,9.10
2022-08-17T18:15:01.461Z,10.43
2022-08-17T18:17:29.887Z,11.63
2022-08-17T18:19:58.269Z,12.03
2022-08-17T18:22:27.729Z,11.70
2022-08-17T18:24:57.238Z,12.70
2022-08-17T18:27:34.122Z,13.70
2022-08-17T18:30:09.065Z,12.67
2022-08-17T18:32:39.938Z,14.30
2022-08-17T18:35:32.745Z,12.53
2022-08-17T18:38:22.449Z,12.80
2022-08-17T18:41:01.298Z,13.30
2022-08-17T18:43:44.171Z,15.40
2022-08-17T18:46:29.877Z,15.70
2022-08-17T18:49:00.495Z,17.17
2022-08-17T18:51:42.358Z,19.00
2022-08-17T18:54:20.231Z,18.60
2022-08-17T18:56:53.692Z,15.90
2022-08-17T18:59:30.522Z,17.80
2022-08-17T19:05:09.727Z,17.10
2022-08-17T19:07:40.401Z,20.10
2022-08-17T19:10:18.330Z,16.27
2022-08-17T19:12:51.202Z,16.73
2022-08-17T19:15:28.421Z,18.63
2022-08-17T19:18:01.601Z,17.77
2022-08-17T19:20:33.134Z,16.20
2022-08-17T19:23:07.930Z,17.20
2022-08-17T19:25:41.809Z,15.67
2022-08-17T19:28:22.494Z,16.27
2022-08-17T19:30:56.465Z,17.30
2022-08-17T19:33:26.118Z,15.93
2022-08-17T19:36:01.999Z,16.20
2022-08-17T19:38:42.202Z,16.37
2022-08-17T19:41:20.687Z,15.37
2022-08-17T19:44:01.706Z,16.47
2022-08-17T19:46:36.321Z,15.93
2022-08-17T19:49:14.530Z,13.50
2022-08-17T19:51:52.262Z,13.97
2022-08-17T19:54:26.939Z,15.00
2022-08-17T19:57:03.096Z,14.53
2022-08-17T19:59:49.359Z,13.67
2022-08-17T20:02:28.258Z,14.10
2022-08-17T20:05:00.058Z,13.50
2022-08-17T20:07:38.186Z,13.43
2022-08-17T20:10:08.850Z,14.33
2022-08-17T20:12:39.429Z,14.43
2022-08-17T20:15:10.999Z,14.23
2022-08-17T20:17:44.338Z,13.87
2022-08-17T20:20:23.257Z,14.10
2022-08-17T20:22:55.601Z,13.63
2022-08-17T20:25:31.337Z,14.93
2022-08-17T20:28:06.174Z,14.57
2022-08-17T20:30:38.342Z,14.43
2022-08-17T20:33:22.310Z,14.97
2022-08-17T20:36:04.300Z,17.60
2022-08-17T20:38:42.321Z,18.33
2022-08-17T20:41:16.666Z,17.90
2022-08-17T20:43:51.046Z,18.10
2022-08-17T20:47:06.366Z,22.47
2022-08-17T20:49:48.813Z,23.57
2022-08-17T20:52:37.165Z,24.10
2022-08-17T20:55:05.811Z,22.67
2022-08-17T20:57:48.876Z,21.90
2022-08-17T21:00:45.850Z,24.70
2022-08-17T21:03:51.145Z,25.20
2022-08-17T21:06:23.708Z,24.53
2022-08-17T21:08:57.582Z,27.53
2022-08-17T21:12:02.910Z,27.50
2022-08-17T21:14:44.900Z,28.13
2022-08-17T21:17:29.442Z,27.90
2022-08-17T21:20:12.583Z,29.23
2022-08-17T21:22:53.454Z,30.27
2022-08-17T21:25:44.842Z,29.57
2022-08-17T21:28:23.059Z,29.17
2022-08-17T21:31:01.080Z,20.67
2022-08-17T21:33:31.497Z,17.90
2022-08-17T21:36:25.658Z,22.40
2022-08-17T21:39:02.076Z,20.97
2022-08-17T21:41:36.419Z,17.63
2022-08-17T21:44:11.921Z,15.17
2022-08-17T21:46:42.912Z,14.00
2022-08-17T21:49:17.754Z,14.80
2022-08-17T21:51:49.829Z,17.43
2022-08-17T21:54:31.260Z,13.50
2022-08-17T21:57:02.153Z,11.90
2022-08-17T21:59:32.868Z,11.10
2022-08-17T22:02:01.910Z,13.33
2022-08-17T22:04:32.022Z,15.13
2022-08-17T22:07:01.101Z,14.47
2022-08-17T22:09:32.502Z,16.47
2022-08-17T22:12:03.440Z,14.87
2022-08-17T22:14:53.119Z,15.53
2022-08-17T22:17:23.961Z,17.57
2022-08-17T22:19:54.795Z,17.20
2022-08-17T22:22:27.337Z,15.80
2022-08-17T22:24:58.590Z,14.77
2022-08-17T22:27:52.564Z,15.73
2022-08-17T22:30:28.797Z,15.13
2022-08-17T22:32:56.798Z,16.77
2022-08-17T22:35:37.354Z,15.30
2022-08-17T22:38:27.768Z,16.43
2022-08-17T22:41:13.657Z,18.20
2022-08-17T22:43:44.664Z,14.43
2022-08-17T22:46:14.876Z,14.67
2022-08-17T22:48:48.902Z,14.07
2022-08-17T22:51:21.642Z,11.77
2022-08-17T22:54:09.167Z,12.73
2022-08-17T22:56:56.155Z,11.30
2022-08-17T22:59:46.505Z,11.67
2022-08-17T23:02:20.660Z,10.40
2022-08-17T23:04:51.576Z,10.20
2022-08-17T23:07:19.690Z,12.17
2022-08-17T23:09:47.620Z,11.63
2022-08-17T23:12:21.978Z,11.90
2022-08-17T23:14:51.392Z,10.50
2022-08-17T23:17:19.078Z,10.13
2022-08-17T23:19:46.675Z,10.60
2022-08-17T23:22:14.285Z,12.43
2022-08-17T23:24:48.868Z,11.33
2022-08-17T23:27:19.130Z,11.67
2022-08-17T23:29:48.601Z,10.13
2022-08-17T23:32:18.673Z,11.20
2022-08-17T23:34:48.105Z,9.93
2022-08-17T23:37:16.726Z,9.17
2022-08-17T23:39:45.600Z,8.10
2022-08-17T23:42:21.534Z,8.20
2022-08-17T23:44:49.676Z,7.47
2022-08-17T23:47:17.852Z,7.30
2022-08-17T23:49:45.680Z,8.20
2022-08-17T23:52:16.622Z,7.30
2022-08-17T23:54:46.794Z,6.23
2022-08-17T23:57:16.945Z,6.80
2022-08-17T23:59:46.118Z,7.60
